Time;durP1;ratioP1;P1;durP2;ratioP2;P2;SDS_P1;SDS_P2;PMS_P1;PMS_P2;Temp;Humidity;BMP_temperature;BMP_pressure;BME280_temperature;BME280_humidity;BME280_pressure;Samples;Min_cycle;Max_cycle;Signal;HPM_P1;HPM_P2
2022/07/18 00:01:38;;;;;;;11.97;7.87;;;;;;;;;;3353439;42;20137;-57
2022/07/18 00:04:04;;;;;;;12.18;8.13;;;;;;;;;;3344639;42;20096;-59
2022/07/18 00:06:30;;;;;;;12.85;8.45;;;;;;;;;;3355972;42;20182;-57
2022/07/18 00:08:56;;;;;;;13.90;8.43;;;;;;;;;;3353316;42;20092;-57
2022/07/18 00:11:22;;;;;;;12.85;7.70;;;;;;;;;;3353054;42;20101;-57
2022/07/18 00:13:50;;;;;;;14.80;8.13;;;;;;;;;;3349039;42;20097;-56
2022/07/18 00:16:16;;;;;;;14.00;7.82;;;;;;;;;;3345749;42;20479;-55
2022/07/18 00:18:42;;;;;;;13.40;7.60;;;;;;;;;;3352180;42;20725;-56
2022/07/18 00:21:08;;;;;;;14.07;7.90;;;;;;;;;;3351651;42;20570;-57
2022/07/18 00:23:33;;;;;;;13.55;8.45;;;;;;;;;;3350011;42;20605;-55
2022/07/18 00:25:59;;;;;;;13.63;8.40;;;;;;;;;;3351051;42;20567;-57
2022/07/18 00:28:25;;;;;;;11.90;7.33;;;;;;;;;;3354558;42;20100;-57
2022/07/18 00:30:51;;;;;;;13.57;8.27;;;;;;;;;;3344367;42;20207;-55
2022/07/18 00:33:17;;;;;;;15.73;7.88;;;;;;;;;;3351414;42;20174;-54
2022/07/18 00:35:43;;;;;;;12.43;7.20;;;;;;;;;;3357095;42;20099;-56
2022/07/18 00:38:09;;;;;;;13.43;8.07;;;;;;;;;;3352536;42;20099;-58
2022/07/18 00:40:35;;;;;;;16.63;8.45;;;;;;;;;;3356018;42;20591;-57
2022/07/18 00:43:01;;;;;;;16.35;7.90;;;;;;;;;;3341544;42;20760;-59
2022/07/18 00:45:27;;;;;;;14.20;8.13;;;;;;;;;;3355811;42;20123;-57
2022/07/18 00:47:53;;;;;;;13.73;8.27;;;;;;;;;;3353638;42;20115;-58
2022/07/18 00:50:19;;;;;;;15.15;8.20;;;;;;;;;;3352416;42;20084;-59
2022/07/18 00:52:46;;;;;;;14.23;8.32;;;;;;;;;;3355912;42;20140;-54
2022/07/18 00:55:12;;;;;;;12.85;7.90;;;;;;;;;;3353747;42;20578;-57
2022/07/18 00:57:37;;;;;;;14.13;8.30;;;;;;;;;;3345744;42;20096;-57
2022/07/18 01:02:52;;;;;;;14.38;7.85;;;;;;;;;;3354218;42;20103;-61
2022/07/18 01:05:18;;;;;;;12.50;7.70;;;;;;;;;;3351240;42;20598;-57
2022/07/18 01:07:44;;;;;;;16.60;7.72;;;;;;;;;;3354092;42;20099;-58
2022/07/18 01:10:10;;;;;;;11.17;7.43;;;;;;;;;;3354636;42;20581;-59
2022/07/18 01:12:36;;;;;;;12.55;7.95;;;;;;;;;;3358644;42;20084;-57
2022/07/18 01:15:04;;;;;;;12.13;7.40;;;;;;;;;;3344312;42;20096;-58
2022/07/18 01:17:29;;;;;;;15.35;7.90;;;;;;;;;;3343460;42;20092;-56
2022/07/18 01:19:55;;;;;;;13.53;7.67;;;;;;;;;;3356693;42;20106;-57
2022/07/18 01:22:21;;;;;;;12.00;7.22;;;;;;;;;;3353566;42;20204;-57
2022/07/18 01:24:48;;;;;;;11.77;7.10;;;;;;;;;;3360161;42;20099;-57
2022/07/18 01:27:17;;;;;;;10.23;7.03;;;;;;;;;;3356815;42;20100;-58
2022/07/18 01:29:44;;;;;;;12.10;6.93;;;;;;;;;;3353036;42;20140;-56
2022/07/18 01:32:10;;;;;;;11.10;6.95;;;;;;;;;;3349827;42;20100;-57
2022/07/18 01:34:36;;;;;;;12.25;7.00;;;;;;;;;;3350096;42;20135;-58
2022/07/18 01:37:03;;;;;;;10.25;6.93;;;;;;;;;;3353677;42;20497;-58
2022/07/18 01:39:29;;;;;;;10.95;6.93;;;;;;;;;;3352296;42;20181;-59
2022/07/18 01:42:05;;;;;;;11.27;6.83;;;;;;;;;;3358315;42;20532;-56
2022/07/18 01:44:31;;;;;;;10.45;6.47;;;;;;;;;;3345208;42;20600;-61
2022/07/18 01:46:57;;;;;;;12.07;7.05;;;;;;;;;;3354873;42;20510;-60
2022/07/18 01:49:24;;;;;;;11.07;6.72;;;;;;;;;;3348166;42;20597;-56
2022/07/18 01:51:53;;;;;;;11.95;6.90;;;;;;;;;;3352648;42;20168;-58
2022/07/18 01:54:20;;;;;;;12.30;6.47;;;;;;;;;;3353334;42;20744;-59
2022/07/18 01:56:46;;;;;;;13.35;6.82;;;;;;;;;;3354684;42;20166;-59
2022/07/18 01:59:12;;;;;;;12.68;6.40;;;;;;;;;;3352381;42;20099;-57
2022/07/18 02:01:38;;;;;;;12.95;6.57;;;;;;;;;;3355256;42;20132;-57
2022/07/18 02:04:04;;;;;;;12.03;6.27;;;;;;;;;;3356180;42;20088;-56
2022/07/18 02:06:30;;;;;;;10.55;6.40;;;;;;;;;;3357103;42;20144;-56
2022/07/18 02:08:56;;;;;;;10.27;6.13;;;;;;;;;;3349761;42;20136;-57
2022/07/18 02:11:22;;;;;;;9.88;6.20;;;;;;;;;;3356889;42;20096;-57
2022/07/18 02:13:48;;;;;;;13.95;6.25;;;;;;;;;;3352251;42;20578;-57
2022/07/18 02:16:14;;;;;;;10.03;6.10;;;;;;;;;;3356134;42;20609;-57
2022/07/18 02:18:40;;;;;;;10.35;5.90;;;;;;;;;;3355297;42;20087;-56
2022/07/18 02:21:07;;;;;;;11.48;5.80;;;;;;;;;;3356785;42;20100;-58
2022/07/18 02:23:33;;;;;;;9.50;6.40;;;;;;;;;;3349567;42;20093;-58
2022/07/18 02:25:59;;;;;;;12.30;6.20;;;;;;;;;;3346685;42;20119;-59
2022/07/18 02:28:25;;;;;;;10.48;6.05;;;;;;;;;;3353296;42;20076;-54
2022/07/18 02:30:51;;;;;;;10.23;6.32;;;;;;;;;;3351414;42;20080;-56
2022/07/18 02:33:17;;;;;;;8.93;5.82;;;;;;;;;;3351720;42;20088;-56
2022/07/18 02:35:43;;;;;;;11.47;6.20;;;;;;;;;;3353772;42;20515;-57
2022/07/18 02:38:09;;;;;;;8.75;5.85;;;;;;;;;;3350309;42;20084;-56
2022/07/18 02:40:35;;;;;;;9.70;5.68;;;;;;;;;;3355089;42;20136;-57
2022/07/18 02:43:02;;;;;;;8.40;5.60;;;;;;;;;;3355363;42;20084;-57
2022/07/18 02:45:28;;;;;;;10.00;5.70;;;;;;;;;;3353262;42;20110;-56
2022/07/18 02:47:54;;;;;;;12.73;6.07;;;;;;;;;;3351958;42;20080;-57
2022/07/18 02:50:19;;;;;;;10.13;6.85;;;;;;;;;;3353084;42;20096;-56
2022/07/18 02:52:45;;;;;;;9.98;6.22;;;;;;;;;;3344661;42;20562;-58
2022/07/18 02:55:12;;;;;;;12.23;6.80;;;;;;;;;;3352554;42;20164;-58
2022/07/18 02:57:38;;;;;;;11.68;7.00;;;;;;;;;;3350937;42;20088;-57
2022/07/18 03:00:05;;;;;;;10.90;6.53;;;;;;;;;;3357576;42;20141;-57
2022/07/18 03:02:31;;;;;;;10.48;6.55;;;;;;;;;;3350633;42;20609;-54
2022/07/18 03:04:57;;;;;;;11.37;6.23;;;;;;;;;;3353053;42;20189;-54
2022/07/18 03:07:23;;;;;;;12.82;6.00;;;;;;;;;;3352096;42;20115;-57
2022/07/18 03:09:49;;;;;;;9.75;6.03;;;;;;;;;;3355355;42;20084;-54
2022/07/18 03:12:15;;;;;;;9.05;5.63;;;;;;;;;;3350137;42;20574;-55
2022/07/18 03:14:41;;;;;;;9.33;5.90;;;;;;;;;;3352627;42;20591;-59
2022/07/18 03:17:07;;;;;;;11.18;5.45;;;;;;;;;;3344707;42;20093;-58
2022/07/18 03:19:33;;;;;;;9.82;5.60;;;;;;;;;;3350068;42;20105;-59
2022/07/18 03:22:00;;;;;;;9.87;5.30;;;;;;;;;;3357525;42;20657;-58
2022/07/18 03:24:26;;;;;;;11.88;5.30;;;;;;;;;;3349585;42;20124;-58
2022/07/18 03:26:51;;;;;;;9.35;5.13;;;;;;;;;;3353580;42;20167;-56
2022/07/18 03:29:17;;;;;;;8.45;5.20;;;;;;;;;;3355012;42;20463;-56
2022/07/18 03:31:43;;;;;;;10.83;5.50;;;;;;;;;;3352250;42;20088;-57
2022/07/18 03:34:09;;;;;;;8.77;5.50;;;;;;;;;;3350692;42;20135;-53
2022/07/18 03:36:35;;;;;;;8.57;5.10;;;;;;;;;;3351426;42;20103;-58
2022/07/18 03:39:01;;;;;;;9.10;5.47;;;;;;;;;;3352202;42;20121;-56
2022/07/18 03:41:27;;;;;;;8.93;5.57;;;;;;;;;;3343109;42;20801;-57
2022/07/18 03:43:53;;;;;;;9.68;5.07;;;;;;;;;;3357646;42;20121;-57
2022/07/18 03:46:19;;;;;;;11.10;5.30;;;;;;;;;;3350367;42;20095;-55
2022/07/18 03:48:45;;;;;;;9.03;5.20;;;;;;;;;;3355950;42;20502;-53
2022/07/18 03:51:11;;;;;;;9.30;5.37;;;;;;;;;;3352993;42;20307;-57
2022/07/18 03:53:37;;;;;;;8.85;5.63;;;;;;;;;;3351253;42;20119;-57
2022/07/18 03:56:03;;;;;;;9.70;5.10;;;;;;;;;;3353769;42;20614;-55
2022/07/18 03:58:29;;;;;;;9.93;5.20;;;;;;;;;;3349074;42;20107;-56
2022/07/18 04:00:55;;;;;;;9.77;5.20;;;;;;;;;;3353081;42;20092;-55
2022/07/18 04:03:21;;;;;;;7.90;4.97;;;;;;;;;;3352537;42;20095;-54
2022/07/18 04:05:47;;;;;;;10.07;4.82;;;;;;;;;;3342634;42;20135;-55
2022/07/18 04:08:13;;;;;;;9.20;4.50;;;;;;;;;;3353080;42;20097;-56
2022/07/18 04:10:39;;;;;;;8.38;4.30;;;;;;;;;;3352447;42;20081;-52
2022/07/18 04:13:06;;;;;;;7.72;4.30;;;;;;;;;;3351909;42;20139;-55
2022/07/18 04:15:32;;;;;;;8.63;4.30;;;;;;;;;;3349429;42;20100;-56
2022/07/18 04:17:58;;;;;;;8.10;4.18;;;;;;;;;;3354485;42;20165;-57
2022/07/18 04:20:24;;;;;;;8.67;3.93;;;;;;;;;;3354047;42;20093;-62
2022/07/18 04:22:51;;;;;;;7.95;4.50;;;;;;;;;;3350432;42;20594;-60
2022/07/18 04:25:18;;;;;;;7.47;4.25;;;;;;;;;;3356146;42;20136;-60
2022/07/18 04:27:44;;;;;;;9.35;4.70;;;;;;;;;;3354051;42;20091;-60
2022/07/18 04:30:10;;;;;;;8.57;4.50;;;;;;;;;;3344931;42;20092;-60
2022/07/18 04:32:37;;;;;;;9.48;4.68;;;;;;;;;;3354589;42;20535;-61
2022/07/18 04:35:04;;;;;;;7.53;4.47;;;;;;;;;;3359388;42;20084;-68
2022/07/18 04:37:31;;;;;;;9.15;4.65;;;;;;;;;;3354881;42;20636;-62
2022/07/18 04:39:57;;;;;;;9.90;4.45;;;;;;;;;;3346470;42;20220;-61
2022/07/18 04:42:23;;;;;;;7.20;4.50;;;;;;;;;;3353414;42;20109;-58
2022/07/18 04:44:49;;;;;;;9.05;4.35;;;;;;;;;;3353684;42;20115;-59
2022/07/18 04:47:15;;;;;;;9.00;4.65;;;;;;;;;;3354841;42;20089;-57
2022/07/18 04:49:41;;;;;;;7.57;4.72;;;;;;;;;;3360915;42;20155;-60
2022/07/18 04:52:07;;;;;;;9.93;4.70;;;;;;;;;;3350435;42;20096;-59
2022/07/18 04:54:33;;;;;;;8.77;5.00;;;;;;;;;;3354682;42;20162;-59
2022/07/18 04:56:59;;;;;;;9.38;4.70;;;;;;;;;;3354061;42;20547;-60
2022/07/18 04:59:25;;;;;;;7.97;5.25;;;;;;;;;;3352729;42;20088;-61
2022/07/18 05:01:51;;;;;;;8.13;4.80;;;;;;;;;;3356201;42;20159;-60
2022/07/18 05:04:17;;;;;;;9.90;4.90;;;;;;;;;;3354383;42;20096;-61
2022/07/18 05:06:43;;;;;;;8.00;5.05;;;;;;;;;;3358527;42;20105;-62
2022/07/18 05:09:09;;;;;;;8.63;4.90;;;;;;;;;;3345819;42;20084;-61
2022/07/18 05:11:35;;;;;;;7.78;4.57;;;;;;;;;;3344696;42;20103;-61
2022/07/18 05:14:01;;;;;;;9.35;4.60;;;;;;;;;;3353403;42;20093;-62
2022/07/18 05:16:27;;;;;;;7.82;4.35;;;;;;;;;;3353008;42;20475;-60
2022/07/18 05:18:52;;;;;;;7.78;4.60;;;;;;;;;;3355295;42;20605;-61
2022/07/18 05:21:18;;;;;;;8.73;5.13;;;;;;;;;;3356251;42;20183;-60
2022/07/18 05:23:45;;;;;;;7.40;4.60;;;;;;;;;;3353284;42;20123;-59
2022/07/18 05:26:12;;;;;;;8.67;5.00;;;;;;;;;;3352511;42;20107;-61
2022/07/18 05:28:38;;;;;;;7.80;4.72;;;;;;;;;;3354332;42;20159;-60
2022/07/18 05:31:04;;;;;;;7.57;4.53;;;;;;;;;;3344590;42;20163;-61
2022/07/18 05:33:29;;;;;;;8.00;4.43;;;;;;;;;;3354294;42;20151;-60
2022/07/18 05:35:55;;;;;;;7.57;4.50;;;;;;;;;;3355079;42;20080;-60
2022/07/18 05:38:21;;;;;;;7.43;4.90;;;;;;;;;;3353910;42;20092;-62
2022/07/18 05:40:47;;;;;;;8.70;4.70;;;;;;;;;;3353467;42;20152;-59
2022/07/18 05:43:14;;;;;;;10.50;4.78;;;;;;;;;;3353511;42;20559;-61
2022/07/18 05:45:40;;;;;;;8.73;5.18;;;;;;;;;;3355673;42;20088;-61
2022/07/18 05:48:06;;;;;;;7.97;4.75;;;;;;;;;;3351937;42;20090;-61
2022/07/18 05:50:33;;;;;;;20.52;9.57;;;;;;;;;;3349466;42;20140;-61
2022/07/18 05:52:59;;;;;;;21.60;10.05;;;;;;;;;;3354651;42;20105;-62
2022/07/18 05:55:25;;;;;;;20.50;9.20;;;;;;;;;;3357744;42;20092;-62
2022/07/18 05:57:52;;;;;;;27.92;12.73;;;;;;;;;;3349615;42;20147;-59
2022/07/18 06:00:18;;;;;;;18.25;8.68;;;;;;;;;;3345446;42;20164;-59
2022/07/18 06:02:46;;;;;;;25.65;10.05;;;;;;;;;;3352906;42;20135;-63
2022/07/18 06:05:12;;;;;;;20.33;9.97;;;;;;;;;;3340176;42;20096;-61
2022/07/18 06:07:39;;;;;;;17.17;8.77;;;;;;;;;;3356785;42;20681;-61
2022/07/18 06:10:05;;;;;;;19.77;8.82;;;;;;;;;;3356248;42;20135;-60
2022/07/18 06:12:31;;;;;;;19.38;8.98;;;;;;;;;;3343646;42;20100;-62
2022/07/18 06:14:58;;;;;;;21.55;9.70;;;;;;;;;;3346793;42;20100;-62
2022/07/18 06:17:24;;;;;;;22.50;10.63;;;;;;;;;;3344462;42;20088;-61
2022/07/18 06:19:50;;;;;;;14.95;8.15;;;;;;;;;;3351243;42;20099;-60
2022/07/18 06:22:17;;;;;;;13.35;6.22;;;;;;;;;;3357108;42;20091;-60
2022/07/18 06:24:43;;;;;;;17.25;6.75;;;;;;;;;;3341895;42;20089;-60
2022/07/18 06:27:09;;;;;;;7.80;4.33;;;;;;;;;;3356276;42;20136;-60
2022/07/18 06:29:34;;;;;;;8.48;4.53;;;;;;;;;;3348995;42;20088;-60
2022/07/18 06:32:00;;;;;;;8.38;4.57;;;;;;;;;;3349080;42;20144;-61
2022/07/18 06:34:26;;;;;;;8.43;4.03;;;;;;;;;;3355258;42;20624;-59
2022/07/18 06:36:52;;;;;;;9.10;4.35;;;;;;;;;;3352276;42;20092;-61
2022/07/18 06:39:18;;;;;;;7.47;4.30;;;;;;;;;;3355931;42;20202;-62
2022/07/18 06:41:44;;;;;;;6.10;3.70;;;;;;;;;;3351252;42;20104;-61
2022/07/18 06:44:11;;;;;;;7.40;3.90;;;;;;;;;;3345495;42;20124;-61
2022/07/18 06:46:37;;;;;;;8.35;3.60;;;;;;;;;;3345731;42;20516;-62
2022/07/18 06:49:03;;;;;;;10.15;4.63;;;;;;;;;;3354353;42;20097;-61
2022/07/18 06:51:29;;;;;;;7.05;4.03;;;;;;;;;;3353920;42;20161;-61
2022/07/18 06:53:56;;;;;;;6.55;3.90;;;;;;;;;;3352318;42;20151;-60
2022/07/18 06:56:21;;;;;;;7.38;3.70;;;;;;;;;;3352199;42;20077;-60
2022/07/18 06:58:51;;;;;;;6.70;3.58;;;;;;;;;;3352544;42;20139;-61
2022/07/18 07:01:17;;;;;;;7.95;3.58;;;;;;;;;;3355267;42;20155;-62
2022/07/18 07:03:43;;;;;;;10.30;4.13;;;;;;;;;;3350679;42;20234;-62
2022/07/18 07:06:09;;;;;;;7.50;3.83;;;;;;;;;;3348203;42;20841;-62
2022/07/18 07:08:35;;;;;;;7.85;3.70;;;;;;;;;;3351929;42;20935;-61
2022/07/18 07:11:01;;;;;;;8.20;3.97;;;;;;;;;;3356301;42;20108;-62
2022/07/18 07:13:27;;;;;;;6.97;3.90;;;;;;;;;;3340180;42;20120;-61
2022/07/18 07:15:53;;;;;;;9.90;5.37;;;;;;;;;;3349999;42;20115;-60
2022/07/18 07:18:20;;;;;;;9.23;5.10;;;;;;;;;;3357487;42;20104;-61
2022/07/18 07:20:46;;;;;;;9.55;4.55;;;;;;;;;;3345794;42;20111;-62
2022/07/18 07:23:12;;;;;;;8.80;4.43;;;;;;;;;;3354819;42;20593;-63
2022/07/18 07:25:38;;;;;;;8.93;3.97;;;;;;;;;;3342305;42;20080;-61
2022/07/18 07:28:04;;;;;;;6.72;3.97;;;;;;;;;;3357233;42;20284;-60
2022/07/18 07:30:31;;;;;;;6.90;3.88;;;;;;;;;;3343362;42;20088;-61
2022/07/18 07:32:57;;;;;;;7.00;3.60;;;;;;;;;;3354602;42;20166;-61
2022/07/18 07:35:23;;;;;;;7.65;3.60;;;;;;;;;;3340372;42;20089;-63
2022/07/18 07:37:51;;;;;;;7.10;3.72;;;;;;;;;;3346367;42;20163;-62
2022/07/18 07:40:17;;;;;;;8.05;3.70;;;;;;;;;;3352276;42;20140;-61
2022/07/18 07:42:43;;;;;;;6.18;3.60;;;;;;;;;;3355099;42;20219;-62
2022/07/18 07:45:10;;;;;;;7.35;3.80;;;;;;;;;;3354477;42;20084;-60
2022/07/18 07:47:36;;;;;;;7.38;3.47;;;;;;;;;;3353454;42;20086;-62
2022/07/18 07:50:02;;;;;;;7.63;3.75;;;;;;;;;;3344395;42;20089;-63
2022/07/18 07:52:28;;;;;;;6.57;3.70;;;;;;;;;;3350880;42;20168;-62
2022/07/18 07:54:54;;;;;;;6.47;3.70;;;;;;;;;;3351706;42;20123;-63
2022/07/18 07:57:20;;;;;;;7.25;3.67;;;;;;;;;;3352559;42;20144;-62
2022/07/18 07:59:46;;;;;;;6.10;4.00;;;;;;;;;;3348125;42;20175;-62
2022/07/18 08:02:12;;;;;;;7.50;4.17;;;;;;;;;;3351301;42;20780;-62
2022/07/18 08:04:38;;;;;;;7.63;4.10;;;;;;;;;;3347190;42;20101;-62
2022/07/18 08:07:04;;;;;;;7.43;4.25;;;;;;;;;;3353497;42;20099;-60
2022/07/18 08:09:30;;;;;;;7.13;4.07;;;;;;;;;;3352921;42;20127;-62
2022/07/18 08:11:56;;;;;;;10.97;5.07;;;;;;;;;;3354286;42;20304;-60
2022/07/18 08:14:22;;;;;;;10.77;4.95;;;;;;;;;;3352586;42;20167;-61
2022/07/18 08:16:48;;;;;;;6.82;4.07;;;;;;;;;;3354862;42;20478;-61
2022/07/18 08:19:14;;;;;;;6.37;3.60;;;;;;;;;;3340795;42;20548;-63
2022/07/18 08:21:40;;;;;;;6.50;4.00;;;;;;;;;;3352608;42;20292;-61
2022/07/18 08:24:06;;;;;;;16.70;8.00;;;;;;;;;;3352607;42;20504;-61
2022/07/18 08:26:34;;;;;;;14.48;6.70;;;;;;;;;;3353222;42;20557;-60
2022/07/18 08:29:00;;;;;;;10.60;5.90;;;;;;;;;;3351331;42;20104;-61
2022/07/18 08:31:26;;;;;;;11.93;6.40;;;;;;;;;;3347827;42;20093;-61
2022/07/18 08:33:51;;;;;;;12.98;6.35;;;;;;;;;;3348168;42;20215;-60
2022/07/18 08:36:20;;;;;;;13.90;5.50;;;;;;;;;;3354018;42;20577;-61
2022/07/18 08:38:46;;;;;;;15.18;7.47;;;;;;;;;;3348775;42;20200;-61
2022/07/18 08:41:12;;;;;;;11.07;5.80;;;;;;;;;;3345753;42;20533;-62
2022/07/18 08:43:38;;;;;;;11.25;5.60;;;;;;;;;;3342971;42;20550;-61
2022/07/18 08:46:05;;;;;;;10.63;5.45;;;;;;;;;;3356906;42;20574;-61
2022/07/18 08:48:31;;;;;;;15.00;7.05;;;;;;;;;;3352157;42;20144;-61
2022/07/18 08:50:58;;;;;;;11.90;6.15;;;;;;;;;;3350455;42;20136;-62
2022/07/18 08:53:24;;;;;;;12.23;7.17;;;;;;;;;;3344269;42;20164;-63
2022/07/18 08:55:50;;;;;;;18.80;9.48;;;;;;;;;;3343019;42;20085;-61
2022/07/18 08:58:17;;;;;;;17.80;9.52;;;;;;;;;;3351532;42;20107;-59
2022/07/18 09:00:44;;;;;;;12.05;6.05;;;;;;;;;;3342159;42;20220;-62
2022/07/18 09:03:10;;;;;;;9.37;5.77;;;;;;;;;;3355983;42;20095;-63
2022/07/18 09:05:37;;;;;;;9.32;5.50;;;;;;;;;;3345524;42;20132;-61
2022/07/18 09:08:21;;;;;;;9.65;5.50;;;;;;;;;;3342670;42;20139;-61
2022/07/18 09:10:53;;;;;;;10.70;6.10;;;;;;;;;;3343603;42;20172;-61
2022/07/18 09:13:23;;;;;;;14.57;7.20;;;;;;;;;;3353359;42;20159;-61
2022/07/18 09:15:58;;;;;;;8.33;5.20;;;;;;;;;;3341981;42;20618;-61
2022/07/18 09:18:32;;;;;;;8.80;5.03;;;;;;;;;;3353641;42;20096;-61
2022/07/18 09:21:05;;;;;;;9.93;5.10;;;;;;;;;;3342831;42;20147;-61
2022/07/18 09:23:33;;;;;;;9.00;4.72;;;;;;;;;;3351391;42;20568;-62
2022/07/18 09:25:59;;;;;;;7.93;5.30;;;;;;;;;;3343627;42;20470;-61
2022/07/18 09:28:27;;;;;;;10.70;5.40;;;;;;;;;;3354029;42;20558;-63
2022/07/18 09:30:53;;;;;;;7.85;4.82;;;;;;;;;;3356397;42;20491;-62
2022/07/18 09:33:20;;;;;;;9.45;4.72;;;;;;;;;;3354051;42;20589;-61
2022/07/18 09:35:48;;;;;;;8.10;4.82;;;;;;;;;;3346704;42;20183;-62
2022/07/18 09:38:30;;;;;;;8.15;5.00;;;;;;;;;;3349552;42;20148;-62
2022/07/18 09:40:57;;;;;;;9.20;5.07;;;;;;;;;;3345728;42;20089;-63
2022/07/18 09:43:23;;;;;;;9.25;5.03;;;;;;;;;;3354624;42;20156;-62
2022/07/18 09:45:51;;;;;;;9.23;5.20;;;;;;;;;;3358368;42;20131;-62
2022/07/18 09:48:24;;;;;;;9.57;5.20;;;;;;;;;;3355215;42;20598;-62
2022/07/18 09:50:55;;;;;;;10.32;5.10;;;;;;;;;;3346860;42;20601;-62
2022/07/18 09:53:25;;;;;;;11.23;5.00;;;;;;;;;;3349201;42;20156;-62
2022/07/18 09:55:58;;;;;;;9.43;5.32;;;;;;;;;;3356528;42;20080;-61
2022/07/18 09:58:28;;;;;;;9.15;5.60;;;;;;;;;;3351919;42;20139;-62
2022/07/18 10:00:55;;;;;;;9.60;5.70;;;;;;;;;;3356077;42;20080;-62
2022/07/18 10:03:22;;;;;;;8.95;5.93;;;;;;;;;;3344403;42;20085;-61
2022/07/18 10:05:48;;;;;;;11.90;6.23;;;;;;;;;;3358339;42;20135;-61
2022/07/18 10:08:23;;;;;;;11.00;5.97;;;;;;;;;;3351436;42;20144;-61
2022/07/18 10:10:50;;;;;;;10.35;6.20;;;;;;;;;;3349535;42;20190;-60
2022/07/18 10:13:17;;;;;;;11.95;6.38;;;;;;;;;;3341854;42;20093;-62
2022/07/18 10:15:43;;;;;;;9.40;6.65;;;;;;;;;;3346150;42;20080;-61
2022/07/18 10:18:14;;;;;;;9.10;6.60;;;;;;;;;;3351211;42;20586;-61
2022/07/18 10:21:00;;;;;;;10.50;6.47;;;;;;;;;;3340443;42;20162;-65
2022/07/18 10:23:28;;;;;;;9.23;6.50;;;;;;;;;;3345300;42;20103;-62
2022/07/18 10:26:17;;;;;;;11.23;6.60;;;;;;;;;;3345892;42;20093;-61
2022/07/18 10:28:55;;;;;;;10.10;6.30;;;;;;;;;;3354952;42;20230;-62
2022/07/18 10:31:22;;;;;;;10.40;6.83;;;;;;;;;;3353649;42;20154;-63
2022/07/18 10:33:48;;;;;;;9.32;6.43;;;;;;;;;;3348792;42;20226;-60
2022/07/18 10:36:16;;;;;;;10.20;7.00;;;;;;;;;;3353845;42;20084;-62
2022/07/18 10:39:13;;;;;;;10.00;7.00;;;;;;;;;;3340436;42;20147;-61
2022/07/18 10:41:39;;;;;;;9.95;7.43;;;;;;;;;;3345026;42;20178;-64
2022/07/18 10:44:24;;;;;;;11.73;7.53;;;;;;;;;;3358123;42;20557;-61
2022/07/18 10:47:12;;;;;;;11.23;7.20;;;;;;;;;;3354098;42;20107;-60
2022/07/18 10:49:47;;;;;;;9.82;7.28;;;;;;;;;;3352390;42;20084;-61
2022/07/18 10:52:26;;;;;;;11.00;6.57;;;;;;;;;;3350370;42;20097;-61
2022/07/18 10:55:08;;;;;;;11.20;7.50;;;;;;;;;;3355341;42;20091;-62
2022/07/18 10:57:49;;;;;;;10.00;7.07;;;;;;;;;;3351186;42;20642;-62
2022/07/18 11:00:15;;;;;;;10.00;7.30;;;;;;;;;;3344399;42;20096;-61
2022/07/18 11:02:42;;;;;;;12.13;7.10;;;;;;;;;;3345046;42;20138;-61
2022/07/18 11:05:27;;;;;;;12.68;7.00;;;;;;;;;;3350185;42;20209;-60
2022/07/18 11:07:59;;;;;;;10.50;7.13;;;;;;;;;;3353447;42;20148;-62
2022/07/18 11:11:17;;;;;;;10.20;7.50;;;;;;;;;;3349811;42;20096;-62
2022/07/18 11:13:40;;;;;;;11.20;7.18;;;;;;;;;;3353833;42;20101;-60
2022/07/18 11:16:13;;;;;;;11.75;7.43;;;;;;;;;;3352439;42;20088;-62
2022/07/18 11:18:39;;;;;;;9.90;7.05;;;;;;;;;;3349964;42;20096;-60
2022/07/18 11:21:24;;;;;;;10.13;7.03;;;;;;;;;;3352486;42;20577;-62
2022/07/18 11:23:51;;;;;;;11.20;7.68;;;;;;;;;;3340030;42;20163;-62
2022/07/18 11:26:24;;;;;;;12.05;7.22;;;;;;;;;;3345974;42;20585;-62
2022/07/18 11:29:09;;;;;;;12.85;7.72;;;;;;;;;;3345517;42;20583;-61
2022/07/18 11:31:51;;;;;;;10.38;7.38;;;;;;;;;;3353315;42;20132;-61
2022/07/18 11:34:17;;;;;;;12.97;7.67;;;;;;;;;;3353298;42;20139;-62
2022/07/18 11:36:46;;;;;;;9.95;7.50;;;;;;;;;;3348235;42;20126;-61
2022/07/18 11:39:12;;;;;;;10.20;6.85;;;;;;;;;;3354572;42;20096;-60
2022/07/18 11:41:40;;;;;;;9.82;7.10;;;;;;;;;;3348121;42;20924;-61
2022/07/18 11:44:26;;;;;;;9.75;7.18;;;;;;;;;;3345925;42;20207;-61
2022/07/18 11:47:21;;;;;;;9.63;6.53;;;;;;;;;;3354011;42;20567;-60
2022/07/18 11:49:54;;;;;;;12.23;6.53;;;;;;;;;;3347344;42;20084;-61
2022/07/18 11:52:20;;;;;;;9.68;6.53;;;;;;;;;;3348591;42;20084;-61
2022/07/18 11:54:46;;;;;;;9.48;6.30;;;;;;;;;;3346120;42;20598;-62
2022/07/18 11:57:12;;;;;;;10.23;6.47;;;;;;;;;;3353516;42;20108;-61
2022/07/18 11:59:43;;;;;;;11.87;6.23;;;;;;;;;;3339995;42;20103;-62
2022/07/18 12:02:10;;;;;;;9.55;6.78;;;;;;;;;;3344153;42;20140;-60
2022/07/18 12:04:36;;;;;;;10.77;7.28;;;;;;;;;;3342697;42;20099;-62
2022/07/18 12:07:19;;;;;;;9.95;6.53;;;;;;;;;;3344755;42;20092;-62
2022/07/18 12:09:46;;;;;;;10.47;6.43;;;;;;;;;;3354156;42;20155;-62
2022/07/18 12:12:13;;;;;;;10.70;6.70;;;;;;;;;;3352241;42;20159;-60
2022/07/18 12:14:39;;;;;;;10.68;6.50;;;;;;;;;;3353887;42;20123;-60
2022/07/18 12:17:05;;;;;;;9.93;6.40;;;;;;;;;;3343350;42;20099;-60
2022/07/18 12:19:33;;;;;;;10.32;6.38;;;;;;;;;;3353056;42;20132;-60
2022/07/18 12:22:02;;;;;;;8.50;5.87;;;;;;;;;;3354570;42;20590;-62
2022/07/18 12:24:34;;;;;;;8.70;6.10;;;;;;;;;;3353353;42;20203;-61
2022/07/18 12:27:18;;;;;;;10.82;6.38;;;;;;;;;;3349504;42;20084;-63
2022/07/18 12:30:10;;;;;;;8.90;6.47;;;;;;;;;;3351250;42;20183;-61
2022/07/18 12:32:59;;;;;;;8.98;5.90;;;;;;;;;;3351802;42;20778;-61
2022/07/18 12:35:32;;;;;;;8.17;5.93;;;;;;;;;;3342235;42;20144;-63
2022/07/18 12:38:05;;;;;;;9.68;6.15;;;;;;;;;;3354786;42;20148;-64
2022/07/18 12:40:42;;;;;;;9.20;6.25;;;;;;;;;;3351795;42;20089;-61
2022/07/18 12:43:14;;;;;;;9.35;6.10;;;;;;;;;;3354941;42;20534;-61
2022/07/18 12:45:40;;;;;;;9.45;6.70;;;;;;;;;;3349348;42;20096;-61
2022/07/18 12:48:08;;;;;;;10.30;6.20;;;;;;;;;;3343349;42;20081;-63
2022/07/18 12:50:34;;;;;;;9.43;6.10;;;;;;;;;;3346554;42;20084;-65
2022/07/18 12:53:00;;;;;;;8.18;5.82;;;;;;;;;;3350036;42;20119;-62
2022/07/18 12:55:26;;;;;;;10.65;5.80;;;;;;;;;;3345935;42;20085;-61
2022/07/18 12:57:52;;;;;;;8.85;5.80;;;;;;;;;;3358598;42;20547;-63
2022/07/18 13:00:18;;;;;;;8.80;5.57;;;;;;;;;;3348592;42;20111;-61
2022/07/18 13:02:45;;;;;;;10.07;5.75;;;;;;;;;;3354855;42;20107;-61
2022/07/18 13:05:11;;;;;;;9.20;5.90;;;;;;;;;;3356395;42;20101;-62
2022/07/18 13:07:37;;;;;;;8.77;6.00;;;;;;;;;;3331049;42;20100;-60
2022/07/18 13:10:03;;;;;;;8.90;5.67;;;;;;;;;;3349155;42;20600;-61
2022/07/18 13:12:29;;;;;;;11.63;6.30;;;;;;;;;;3343947;42;20104;-63
2022/07/18 13:14:55;;;;;;;9.30;5.43;;;;;;;;;;3348531;42;20489;-60
2022/07/18 13:17:21;;;;;;;10.13;6.13;;;;;;;;;;3352608;42;20475;-62
2022/07/18 13:19:47;;;;;;;10.03;5.97;;;;;;;;;;3352663;42;20093;-59
2022/07/18 13:22:13;;;;;;;8.75;5.53;;;;;;;;;;3355234;42;20100;-58
2022/07/18 13:24:39;;;;;;;12.00;6.00;;;;;;;;;;3349779;42;20121;-61
2022/07/18 13:27:05;;;;;;;13.07;6.00;;;;;;;;;;3355202;42;20101;-61
2022/07/18 13:29:31;;;;;;;17.08;7.20;;;;;;;;;;3346716;42;20095;-62
2022/07/18 13:31:57;;;;;;;16.17;7.00;;;;;;;;;;3345471;42;20084;-62
2022/07/18 13:34:23;;;;;;;12.90;7.00;;;;;;;;;;3349973;42;20190;-61
2022/07/18 13:36:50;;;;;;;12.35;7.40;;;;;;;;;;3354881;42;20199;-62
2022/07/18 13:39:16;;;;;;;19.08;8.32;;;;;;;;;;3357114;42;20591;-62
2022/07/18 13:41:43;;;;;;;17.90;8.60;;;;;;;;;;3357750;42;20585;-61
2022/07/18 13:44:09;;;;;;;9.50;6.40;;;;;;;;;;3341077;42;20139;-63
2022/07/18 13:46:35;;;;;;;11.73;6.60;;;;;;;;;;3354108;42;20092;-61
2022/07/18 13:49:01;;;;;;;11.65;7.22;;;;;;;;;;3352279;42;20103;-60
2022/07/18 13:51:27;;;;;;;14.57;8.30;;;;;;;;;;3350106;42;20080;-59
2022/07/18 13:53:53;;;;;;;12.55;7.75;;;;;;;;;;3352343;42;20253;-62
2022/07/18 13:56:19;;;;;;;13.88;7.45;;;;;;;;;;3352356;42;20219;-63
2022/07/18 13:58:45;;;;;;;15.77;10.05;;;;;;;;;;3354933;42;20140;-61
2022/07/18 14:01:12;;;;;;;15.17;7.93;;;;;;;;;;3353477;42;20249;-63
2022/07/18 14:03:38;;;;;;;12.40;7.97;;;;;;;;;;3352833;42;20128;-63
2022/07/18 14:06:05;;;;;;;13.27;7.78;;;;;;;;;;3357913;42;20091;-61
2022/07/18 14:08:30;;;;;;;12.98;7.20;;;;;;;;;;3352597;42;20610;-62
2022/07/18 14:10:56;;;;;;;11.73;7.75;;;;;;;;;;3354291;42;20103;-62
2022/07/18 14:13:22;;;;;;;12.67;8.27;;;;;;;;;;3353029;42;20105;-63
2022/07/18 14:15:49;;;;;;;12.70;8.45;;;;;;;;;;3354648;42;20092;-62
2022/07/18 14:18:14;;;;;;;15.13;8.60;;;;;;;;;;3346442;42;20127;-61
2022/07/18 14:20:41;;;;;;;14.10;8.23;;;;;;;;;;3350286;42;20167;-61
2022/07/18 14:23:06;;;;;;;15.17;8.63;;;;;;;;;;3346990;42;20092;-63
2022/07/18 14:25:32;;;;;;;16.55;8.32;;;;;;;;;;3357444;42;20550;-61
2022/07/18 14:27:58;;;;;;;12.52;8.18;;;;;;;;;;3352156;42;20135;-61
2022/07/18 14:30:25;;;;;;;14.95;8.55;;;;;;;;;;3353650;42;20571;-61
2022/07/18 14:32:51;;;;;;;15.88;8.02;;;;;;;;;;3354314;42;20580;-62
2022/07/18 14:35:17;;;;;;;13.70;7.73;;;;;;;;;;3351587;42;20084;-60
2022/07/18 14:37:43;;;;;;;12.93;7.70;;;;;;;;;;3352805;42;20103;-62
2022/07/18 14:40:09;;;;;;;13.77;7.57;;;;;;;;;;3353729;42;20093;-62
2022/07/18 14:42:35;;;;;;;11.52;7.47;;;;;;;;;;3354804;42;20186;-62